sensor_id;sensor_type;location;lat;lon;timestamp;P1;durP1;ratioP1;P2;durP2;ratioP2
48487;SDS011;34289;48.572;13.378;2023-12-20T00:01:22;11.48;;;10.35;;
48487;SDS011;34289;48.572;13.378;2023-12-20T00:04:12;13.13;;;10.95;;
48487;SDS011;34289;48.572;13.378;2023-12-20T00:07:04;11.82;;;10.40;;
48487;SDS011;34289;48.572;13.378;2023-12-20T00:09:47;14.13;;;10.65;;
48487;SDS011;34289;48.572;13.378;2023-12-20T00:12:58;13.85;;;10.82;;
48487;SDS011;34289;48.572;13.378;2023-12-20T00:16:06;14.90;;;10.85;;
48487;SDS011;34289;48.572;13.378;2023-12-20T00:18:47;13.52;;;10.38;;
48487;SDS011;34289;48.572;13.378;2023-12-20T00:21:37;11.30;;;9.98;;
48487;SDS011;34289;48.572;13.378;2023-12-20T00:24:15;11.15;;;9.70;;
48487;SDS011;34289;48.572;13.378;2023-12-20T00:27:07;11.63;;;9.02;;
48487;SDS011;34289;48.572;13.378;2023-12-20T00:30:04;11.38;;;10.18;;
48487;SDS011;34289;48.572;13.378;2023-12-20T00:33:08;11.82;;;10.10;;
48487;SDS011;34289;48.572;13.378;2023-12-20T00:36:09;15.13;;;10.52;;
48487;SDS011;34289;48.572;13.378;2023-12-20T00:39:09;17.02;;;11.13;;
48487;SDS011;34289;48.572;13.378;2023-12-20T00:41:46;18.73;;;14.15;;
48487;SDS011;34289;48.572;13.378;2023-12-20T00:44:23;14.98;;;11.95;;
48487;SDS011;34289;48.572;13.378;2023-12-20T00:47:01;19.90;;;11.25;;
48487;SDS011;34289;48.572;13.378;2023-12-20T00:49:40;18.75;;;11.65;;
48487;SDS011;34289;48.572;13.378;2023-12-20T00:52:53;15.32;;;10.93;;
48487;SDS011;34289;48.572;13.378;2023-12-20T00:55:49;12.65;;;10.23;;
48487;SDS011;34289;48.572;13.378;2023-12-20T00:58:48;18.00;;;11.00;;
48487;SDS011;34289;48.572;13.378;2023-12-20T01:01:37;13.77;;;10.50;;
48487;SDS011;34289;48.572;13.378;2023-12-20T01:04:06;19.70;;;11.23;;
48487;SDS011;34289;48.572;13.378;2023-12-20T01:10:07;11.88;;;9.30;;
48487;SDS011;34289;48.572;13.378;2023-12-20T01:13:02;15.82;;;11.38;;
48487;SDS011;34289;48.572;13.378;2023-12-20T01:15:53;15.02;;;10.13;;
48487;SDS011;34289;48.572;13.378;2023-12-20T01:18:43;13.68;;;10.52;;
48487;SDS011;34289;48.572;13.378;2023-12-20T01:21:19;14.45;;;10.88;;
48487;SDS011;34289;48.572;13.378;2023-12-20T01:24:24;14.00;;;10.95;;
48487;SDS011;34289;48.572;13.378;2023-12-20T01:27:19;14.05;;;12.18;;
48487;SDS011;34289;48.572;13.378;2023-12-20T01:30:08;14.57;;;11.18;;
48487;SDS011;34289;48.572;13.378;2023-12-20T01:33:19;17.65;;;14.00;;
48487;SDS011;34289;48.572;13.378;2023-12-20T01:36:20;18.02;;;14.40;;
48487;SDS011;34289;48.572;13.378;2023-12-20T01:38:56;19.13;;;14.50;;
48487;SDS011;34289;48.572;13.378;2023-12-20T01:44:42;18.67;;;12.43;;
48487;SDS011;34289;48.572;13.378;2023-12-20T01:47:09;16.88;;;12.18;;
48487;SDS011;34289;48.572;13.378;2023-12-20T01:50:11;13.02;;;9.50;;
48487;SDS011;34289;48.572;13.378;2023-12-20T01:53:00;14.82;;;11.20;;
48487;SDS011;34289;48.572;13.378;2023-12-20T01:55:58;12.70;;;9.65;;
48487;SDS011;34289;48.572;13.378;2023-12-20T01:58:49;14.07;;;10.80;;
48487;SDS011;34289;48.572;13.378;2023-12-20T02:01:44;15.90;;;10.57;;
48487;SDS011;34289;48.572;13.378;2023-12-20T02:04:38;22.08;;;13.15;;
48487;SDS011;34289;48.572;13.378;2023-12-20T02:07:16;24.58;;;14.68;;
48487;SDS011;34289;48.572;13.378;2023-12-20T02:09:53;24.95;;;15.93;;
48487;SDS011;34289;48.572;13.378;2023-12-20T02:12:52;17.13;;;12.55;;
48487;SDS011;34289;48.572;13.378;2023-12-20T02:15:54;19.05;;;11.65;;
48487;SDS011;34289;48.572;13.378;2023-12-20T02:18:46;16.73;;;11.93;;
48487;SDS011;34289;48.572;13.378;2023-12-20T02:22:11;15.30;;;11.65;;
48487;SDS011;34289;48.572;13.378;2023-12-20T02:25:04;16.08;;;11.70;;
48487;SDS011;34289;48.572;13.378;2023-12-20T02:27:43;14.32;;;10.57;;
48487;SDS011;34289;48.572;13.378;2023-12-20T02:30:55;16.80;;;11.50;;
48487;SDS011;34289;48.572;13.378;2023-12-20T02:33:29;16.03;;;11.43;;
48487;SDS011;34289;48.572;13.378;2023-12-20T02:36:04;15.98;;;11.75;;
48487;SDS011;34289;48.572;13.378;2023-12-20T02:39:11;13.45;;;10.88;;
48487;SDS011;34289;48.572;13.378;2023-12-20T02:41:52;17.95;;;13.10;;
48487;SDS011;34289;48.572;13.378;2023-12-20T02:44:42;15.30;;;12.13;;
48487;SDS011;34289;48.572;13.378;2023-12-20T02:47:56;16.30;;;11.82;;
48487;SDS011;34289;48.572;13.378;2023-12-20T02:50:45;20.52;;;12.75;;
48487;SDS011;34289;48.572;13.378;2023-12-20T02:57:15;14.35;;;12.40;;
48487;SDS011;34289;48.572;13.378;2023-12-20T02:59:53;19.25;;;12.48;;
48487;SDS011;34289;48.572;13.378;2023-12-20T03:02:50;18.90;;;12.85;;
48487;SDS011;34289;48.572;13.378;2023-12-20T03:05:30;17.83;;;12.35;;
48487;SDS011;34289;48.572;13.378;2023-12-20T03:08:01;16.63;;;12.38;;
48487;SDS011;34289;48.572;13.378;2023-12-20T03:11:18;14.02;;;10.73;;
48487;SDS011;34289;48.572;13.378;2023-12-20T03:14:19;15.82;;;12.00;;
48487;SDS011;34289;48.572;13.378;2023-12-20T03:17:14;14.30;;;11.20;;
48487;SDS011;34289;48.572;13.378;2023-12-20T03:20:06;16.13;;;11.93;;
48487;SDS011;34289;48.572;13.378;2023-12-20T03:23:08;17.05;;;10.95;;
48487;SDS011;34289;48.572;13.378;2023-12-20T03:26:13;14.90;;;11.50;;
48487;SDS011;34289;48.572;13.378;2023-12-20T03:31:48;14.73;;;10.75;;
48487;SDS011;34289;48.572;13.378;2023-12-20T03:34:22;12.50;;;10.20;;
48487;SDS011;34289;48.572;13.378;2023-12-20T03:37:26;13.23;;;10.73;;
48487;SDS011;34289;48.572;13.378;2023-12-20T03:43:52;14.20;;;10.85;;
48487;SDS011;34289;48.572;13.378;2023-12-20T03:46:24;12.55;;;11.18;;
48487;SDS011;34289;48.572;13.378;2023-12-20T03:49:28;13.60;;;11.52;;
48487;SDS011;34289;48.572;13.378;2023-12-20T03:52:16;16.60;;;12.68;;
48487;SDS011;34289;48.572;13.378;2023-12-20T03:55:19;16.90;;;12.80;;
48487;SDS011;34289;48.572;13.378;2023-12-20T04:01:08;14.75;;;12.93;;
48487;SDS011;34289;48.572;13.378;2023-12-20T04:04:15;13.95;;;12.35;;
48487;SDS011;34289;48.572;13.378;2023-12-20T04:07:14;14.20;;;11.98;;
48487;SDS011;34289;48.572;13.378;2023-12-20T04:10:32;15.77;;;11.23;;
48487;SDS011;34289;48.572;13.378;2023-12-20T04:13:18;14.65;;;11.82;;
48487;SDS011;34289;48.572;13.378;2023-12-20T04:15:52;15.77;;;12.18;;
48487;SDS011;34289;48.572;13.378;2023-12-20T04:18:37;14.27;;;11.07;;
48487;SDS011;34289;48.572;13.378;2023-12-20T04:21:37;13.30;;;11.90;;
48487;SDS011;34289;48.572;13.378;2023-12-20T04:24:26;12.30;;;10.38;;
48487;SDS011;34289;48.572;13.378;2023-12-20T04:27:03;14.48;;;11.93;;
48487;SDS011;34289;48.572;13.378;2023-12-20T04:30:08;12.60;;;9.85;;
48487;SDS011;34289;48.572;13.378;2023-12-20T04:33:03;12.52;;;11.15;;
48487;SDS011;34289;48.572;13.378;2023-12-20T04:35:31;19.42;;;12.45;;
48487;SDS011;34289;48.572;13.378;2023-12-20T04:38:01;15.02;;;11.18;;
48487;SDS011;34289;48.572;13.378;2023-12-20T04:40:31;14.57;;;11.68;;
48487;SDS011;34289;48.572;13.378;2023-12-20T04:43:52;15.65;;;11.40;;
48487;SDS011;34289;48.572;13.378;2023-12-20T04:46:21;16.25;;;11.45;;
48487;SDS011;34289;48.572;13.378;2023-12-20T04:49:14;15.00;;;10.88;;
48487;SDS011;34289;48.572;13.378;2023-12-20T04:51:57;13.98;;;10.35;;
48487;SDS011;34289;48.572;13.378;2023-12-20T04:55:11;14.10;;;10.73;;
48487;SDS011;34289;48.572;13.378;2023-12-20T04:58:27;13.75;;;10.93;;
48487;SDS011;34289;48.572;13.378;2023-12-20T05:01:23;14.65;;;11.05;;
48487;SDS011;34289;48.572;13.378;2023-12-20T05:04:03;13.23;;;11.02;;
48487;SDS011;34289;48.572;13.378;2023-12-20T05:06:44;12.57;;;10.73;;
48487;SDS011;34289;48.572;13.378;2023-12-20T05:09:18;14.90;;;11.48;;
48487;SDS011;34289;48.572;13.378;2023-12-20T05:12:20;15.95;;;11.85;;
48487;SDS011;34289;48.572;13.378;2023-12-20T05:14:49;14.43;;;11.90;;
48487;SDS011;34289;48.572;13.378;2023-12-20T05:17:43;15.88;;;12.93;;
48487;SDS011;34289;48.572;13.378;2023-12-20T05:20:43;14.77;;;11.27;;
48487;SDS011;34289;48.572;13.378;2023-12-20T05:24:02;13.38;;;11.13;;
48487;SDS011;34289;48.572;13.378;2023-12-20T05:26:48;13.57;;;10.90;;
48487;SDS011;34289;48.572;13.378;2023-12-20T05:29:55;14.68;;;11.07;;
48487;SDS011;34289;48.572;13.378;2023-12-20T05:36:05;14.93;;;11.18;;
48487;SDS011;34289;48.572;13.378;2023-12-20T05:39:13;13.63;;;11.85;;
48487;SDS011;34289;48.572;13.378;2023-12-20T05:42:02;15.75;;;12.10;;
48487;SDS011;34289;48.572;13.378;2023-12-20T05:47:59;21.98;;;13.25;;
48487;SDS011;34289;48.572;13.378;2023-12-20T05:50:54;16.27;;;12.00;;
48487;SDS011;34289;48.572;13.378;2023-12-20T05:53:23;18.38;;;12.77;;
48487;SDS011;34289;48.572;13.378;2023-12-20T05:59:43;19.73;;;13.73;;
48487;SDS011;34289;48.572;13.378;2023-12-20T06:02:08;15.98;;;11.93;;
48487;SDS011;34289;48.572;13.378;2023-12-20T06:04:34;22.17;;;12.90;;
48487;SDS011;34289;48.572;13.378;2023-12-20T06:06:59;17.05;;;11.82;;
48487;SDS011;34289;48.572;13.378;2023-12-20T06:09:28;18.27;;;13.27;;
48487;SDS011;34289;48.572;13.378;2023-12-20T06:11:54;17.50;;;13.63;;
48487;SDS011;34289;48.572;13.378;2023-12-20T06:14:21;17.23;;;13.20;;
48487;SDS011;34289;48.572;13.378;2023-12-20T06:16:46;44.85;;;17.13;;
48487;SDS011;34289;48.572;13.378;2023-12-20T06:19:12;30.33;;;16.52;;
48487;SDS011;34289;48.572;13.378;2023-12-20T06:21:37;33.25;;;15.65;;
48487;SDS011;34289;48.572;13.378;2023-12-20T06:24:03;32.95;;;15.55;;
48487;SDS011;34289;48.572;13.378;2023-12-20T06:26:29;26.05;;;15.35;;
48487;SDS011;34289;48.572;13.378;2023-12-20T06:28:54;30.20;;;15.48;;
48487;SDS011;34289;48.572;13.378;2023-12-20T06:31:23;25.35;;;14.80;;
48487;SDS011;34289;48.572;13.378;2023-12-20T06:33:49;30.30;;;13.60;;
48487;SDS011;34289;48.572;13.378;2023-12-20T06:36:25;24.42;;;12.60;;
48487;SDS011;34289;48.572;13.378;2023-12-20T06:38:51;24.08;;;13.07;;
48487;SDS011;34289;48.572;13.378;2023-12-20T06:41:18;23.50;;;14.73;;
48487;SDS011;34289;48.572;13.378;2023-12-20T06:43:44;17.95;;;12.88;;
48487;SDS011;34289;48.572;13.378;2023-12-20T06:46:10;28.27;;;16.17;;
48487;SDS011;34289;48.572;13.378;2023-12-20T06:48:36;31.20;;;15.52;;
48487;SDS011;34289;48.572;13.378;2023-12-20T06:51:05;23.95;;;14.35;;
48487;SDS011;34289;48.572;13.378;2023-12-20T06:53:39;28.55;;;15.68;;
48487;SDS011;34289;48.572;13.378;2023-12-20T06:56:07;27.60;;;15.77;;
48487;SDS011;34289;48.572;13.378;2023-12-20T06:58:34;27.83;;;16.40;;
48487;SDS011;34289;48.572;13.378;2023-12-20T07:01:00;25.52;;;15.45;;
48487;SDS011;34289;48.572;13.378;2023-12-20T07:03:25;33.85;;;14.63;;
48487;SDS011;34289;48.572;13.378;2023-12-20T07:05:51;30.02;;;17.50;;
48487;SDS011;34289;48.572;13.378;2023-12-20T07:08:19;31.70;;;16.25;;
48487;SDS011;34289;48.572;13.378;2023-12-20T07:10:45;25.92;;;14.98;;
48487;SDS011;34289;48.572;13.378;2023-12-20T07:13:10;25.08;;;14.27;;
48487;SDS011;34289;48.572;13.378;2023-12-20T07:15:37;22.45;;;14.60;;
48487;SDS011;34289;48.572;13.378;2023-12-20T07:18:04;24.17;;;14.02;;
48487;SDS011;34289;48.572;13.378;2023-12-20T07:20:31;22.20;;;14.13;;
48487;SDS011;34289;48.572;13.378;2023-12-20T07:22:58;20.80;;;13.35;;
48487;SDS011;34289;48.572;13.378;2023-12-20T07:25:29;24.88;;;15.38;;
48487;SDS011;34289;48.572;13.378;2023-12-20T07:27:57;29.63;;;16.02;;
48487;SDS011;34289;48.572;13.378;2023-12-20T07:30:23;27.65;;;15.75;;
48487;SDS011;34289;48.572;13.378;2023-12-20T07:32:49;31.42;;;18.65;;
48487;SDS011;34289;48.572;13.378;2023-12-20T07:35:17;21.52;;;14.30;;
48487;SDS011;34289;48.572;13.378;2023-12-20T07:37:43;25.35;;;15.82;;
48487;SDS011;34289;48.572;13.378;2023-12-20T07:40:09;17.80;;;13.30;;
48487;SDS011;34289;48.572;13.378;2023-12-20T07:42:35;15.32;;;12.73;;
48487;SDS011;34289;48.572;13.378;2023-12-20T07:45:00;21.30;;;14.98;;
48487;SDS011;34289;48.572;13.378;2023-12-20T07:47:26;19.45;;;12.77;;
48487;SDS011;34289;48.572;13.378;2023-12-20T07:49:52;19.60;;;13.60;;
48487;SDS011;34289;48.572;13.378;2023-12-20T07:52:18;24.50;;;18.05;;
48487;SDS011;34289;48.572;13.378;2023-12-20T07:54:45;27.73;;;16.58;;
48487;SDS011;34289;48.572;13.378;2023-12-20T07:57:11;24.80;;;18.15;;
48487;SDS011;34289;48.572;13.378;2023-12-20T07:59:37;30.92;;;18.98;;
48487;SDS011;34289;48.572;13.378;2023-12-20T08:02:05;33.13;;;20.02;;
48487;SDS011;34289;48.572;13.378;2023-12-20T08:04:31;23.42;;;15.95;;
48487;SDS011;34289;48.572;13.378;2023-12-20T08:06:57;27.42;;;16.35;;
48487;SDS011;34289;48.572;13.378;2023-12-20T08:09:29;23.35;;;15.00;;
48487;SDS011;34289;48.572;13.378;2023-12-20T08:11:54;26.10;;;14.48;;
48487;SDS011;34289;48.572;13.378;2023-12-20T08:14:20;20.90;;;14.68;;
48487;SDS011;34289;48.572;13.378;2023-12-20T08:16:48;23.08;;;14.60;;
48487;SDS011;34289;48.572;13.378;2023-12-20T08:19:16;17.95;;;14.23;;
48487;SDS011;34289;48.572;13.378;2023-12-20T08:21:44;20.25;;;15.00;;
48487;SDS011;34289;48.572;13.378;2023-12-20T08:24:13;22.73;;;14.35;;
48487;SDS011;34289;48.572;13.378;2023-12-20T08:26:39;19.77;;;13.15;;
48487;SDS011;34289;48.572;13.378;2023-12-20T08:29:07;21.77;;;12.82;;
48487;SDS011;34289;48.572;13.378;2023-12-20T08:31:32;15.77;;;10.93;;
48487;SDS011;34289;48.572;13.378;2023-12-20T08:33:59;11.23;;;8.75;;
48487;SDS011;34289;48.572;13.378;2023-12-20T08:36:34;8.85;;;7.00;;
48487;SDS011;34289;48.572;13.378;2023-12-20T08:38:59;6.10;;;5.50;;
48487;SDS011;34289;48.572;13.378;2023-12-20T08:41:25;6.38;;;4.53;;
48487;SDS011;34289;48.572;13.378;2023-12-20T08:43:51;6.50;;;4.03;;
48487;SDS011;34289;48.572;13.378;2023-12-20T08:46:16;5.20;;;4.70;;
48487;SDS011;34289;48.572;13.378;2023-12-20T08:48:42;4.40;;;3.67;;
48487;SDS011;34289;48.572;13.378;2023-12-20T08:51:08;3.10;;;2.90;;
48487;SDS011;34289;48.572;13.378;2023-12-20T08:53:35;4.68;;;3.70;;
48487;SDS011;34289;48.572;13.378;2023-12-20T08:56:03;3.70;;;3.30;;
48487;SDS011;34289;48.572;13.378;2023-12-20T08:58:29;5.75;;;3.28;;
48487;SDS011;34289;48.572;13.378;2023-12-20T09:00:54;4.80;;;3.60;;
48487;SDS011;34289;48.572;13.378;2023-12-20T09:03:20;3.97;;;3.50;;
48487;SDS011;34289;48.572;13.378;2023-12-20T09:05:45;5.70;;;3.30;;
48487;SDS011;34289;48.572;13.378;2023-12-20T09:08:14;4.30;;;3.90;;
48487;SDS011;34289;48.572;13.378;2023-12-20T09:10:48;6.22;;;3.65;;
48487;SDS011;34289;48.572;13.378;2023-12-20T09:13:14;4.97;;;3.05;;
48487;SDS011;34289;48.572;13.378;2023-12-20T09:15:40;6.68;;;3.33;;
48487;SDS011;34289;48.572;13.378;2023-12-20T09:18:05;4.07;;;3.45;;
48487;SDS011;34289;48.572;13.378;2023-12-20T09:20:31;3.50;;;2.97;;
48487;SDS011;34289;48.572;13.378;2023-12-20T09:23:00;3.17;;;2.88;;
48487;SDS011;34289;48.572;13.378;2023-12-20T09:25:34;2.95;;;2.72;;
48487;SDS011;34289;48.572;13.378;2023-12-20T09:28:00;6.75;;;3.45;;
48487;SDS011;34289;48.572;13.378;2023-12-20T09:30:28;4.63;;;3.17;;
48487;SDS011;34289;48.572;13.378;2023-12-20T09:32:54;4.10;;;2.95;;
48487;SDS011;34289;48.572;13.378;2023-12-20T09:35:20;3.40;;;3.03;;
48487;SDS011;34289;48.572;13.378;2023-12-20T09:37:46;4.38;;;3.45;;
48487;SDS011;34289;48.572;13.378;2023-12-20T09:40:12;6.05;;;3.53;;
48487;SDS011;34289;48.572;13.378;2023-12-20T09:45:16;6.93;;;4.20;;
48487;SDS011;34289;48.572;13.378;2023-12-20T09:47:45;3.33;;;2.90;;
48487;SDS011;34289;48.572;13.378;2023-12-20T09:50:14;5.60;;;3.33;;
48487;SDS011;34289;48.572;13.378;2023-12-20T09:52:43;4.70;;;3.47;;
48487;SDS011;34289;48.572;13.378;2023-12-20T09:55:10;3.38;;;2.88;;
48487;SDS011;34289;48.572;13.378;2023-12-20T09:57:37;4.75;;;2.90;;
48487;SDS011;34289;48.572;13.378;2023-12-20T10:00:05;5.40;;;2.90;;
48487;SDS011;34289;48.572;13.378;2023-12-20T10:02:31;3.97;;;3.03;;
48487;SDS011;34289;48.572;13.378;2023-12-20T10:04:59;3.10;;;2.80;;
48487;SDS011;34289;48.572;13.378;2023-12-20T10:07:26;4.63;;;2.83;;
48487;SDS011;34289;48.572;13.378;2023-12-20T10:09:52;3.75;;;3.15;;
48487;SDS011;34289;48.572;13.378;2023-12-20T10:12:23;3.83;;;3.38;;
48487;SDS011;34289;48.572;13.378;2023-12-20T10:14:52;5.15;;;2.97;;
48487;SDS011;34289;48.572;13.378;2023-12-20T10:17:17;5.15;;;3.72;;
48487;SDS011;34289;48.572;13.378;2023-12-20T10:19:46;4.65;;;3.40;;
48487;SDS011;34289;48.572;13.378;2023-12-20T10:22:12;5.63;;;3.65;;
48487;SDS011;34289;48.572;13.378;2023-12-20T10:24:40;4.72;;;3.10;;
48487;SDS011;34289;48.572;13.378;2023-12-20T10:27:07;3.67;;;3.38;;
48487;SDS011;34289;48.572;13.378;2023-12-20T10:29:36;3.90;;;3.20;;
48487;SDS011;34289;48.572;13.378;2023-12-20T10:34:48;4.28;;;3.17;;
48487;SDS011;34289;48.572;13.378;2023-12-20T10:37:14;3.67;;;3.38;;
48487;SDS011;34289;48.572;13.378;2023-12-20T10:39:49;4.57;;;3.30;;
48487;SDS011;34289;48.572;13.378;2023-12-20T10:42:17;3.53;;;3.22;;
48487;SDS011;34289;48.572;13.378;2023-12-20T10:44:46;5.55;;;3.20;;
48487;SDS011;34289;48.572;13.378;2023-12-20T10:47:13;4.10;;;3.70;;
48487;SDS011;34289;48.572;13.378;2023-12-20T10:49:38;3.50;;;3.20;;
48487;SDS011;34289;48.572;13.378;2023-12-20T10:52:07;3.85;;;3.55;;
48487;SDS011;34289;48.572;13.378;2023-12-20T10:54:33;4.80;;;2.90;;
48487;SDS011;34289;48.572;13.378;2023-12-20T10:56:59;5.10;;;2.80;;
48487;SDS011;34289;48.572;13.378;2023-12-20T10:59:30;3.42;;;3.13;;
48487;SDS011;34289;48.572;13.378;2023-12-20T11:02:02;5.40;;;3.47;;
48487;SDS011;34289;48.572;13.378;2023-12-20T11:07:35;3.80;;;3.50;;
48487;SDS011;34289;48.572;13.378;2023-12-20T11:10:14;3.38;;;3.08;;
48487;SDS011;34289;48.572;13.378;2023-12-20T11:12:57;3.95;;;2.97;;
48487;SDS011;34289;48.572;13.378;2023-12-20T11:15:28;5.75;;;3.53;;
48487;SDS011;34289;48.572;13.378;2023-12-20T11:17:55;3.42;;;3.13;;
48487;SDS011;34289;48.572;13.378;2023-12-20T11:20:22;3.70;;;3.30;;
48487;SDS011;34289;48.572;13.378;2023-12-20T11:22:54;5.25;;;3.42;;
48487;SDS011;34289;48.572;13.378;2023-12-20T11:28:06;4.63;;;3.35;;
48487;SDS011;34289;48.572;13.378;2023-12-20T11:30:45;7.85;;;3.03;;
48487;SDS011;34289;48.572;13.378;2023-12-20T11:33:13;3.72;;;3.42;;
48487;SDS011;34289;48.572;13.378;2023-12-20T11:35:40;4.35;;;3.20;;
48487;SDS011;34289;48.572;13.378;2023-12-20T11:38:11;3.53;;;3.22;;
48487;SDS011;34289;48.572;13.378;2023-12-20T11:40:39;4.53;;;3.40;;
48487;SDS011;34289;48.572;13.378;2023-12-20T11:43:07;4.63;;;3.10;;
48487;SDS011;34289;48.572;13.378;2023-12-20T11:45:32;3.63;;;3.33;;
48487;SDS011;34289;48.572;13.378;2023-12-20T11:48:04;4.45;;;3.30;;
48487;SDS011;34289;48.572;13.378;2023-12-20T11:50:31;5.45;;;3.33;;
48487;SDS011;34289;48.572;13.378;2023-12-20T11:52:57;6.18;;;4.70;;
48487;SDS011;34289;48.572;13.378;2023-12-20T11:55:23;5.60;;;3.80;;
48487;SDS011;34289;48.572;13.378;2023-12-20T11:57:52;4.78;;;3.05;;
48487;SDS011;34289;48.572;13.378;2023-12-20T12:00:18;4.07;;;3.45;;
48487;SDS011;34289;48.572;13.378;2023-12-20T12:02:56;7.25;;;3.40;;
48487;SDS011;34289;48.572;13.378;2023-12-20T12:05:23;5.65;;;3.03;;
48487;SDS011;34289;48.572;13.378;2023-12-20T12:07:49;4.03;;;3.20;;
48487;SDS011;34289;48.572;13.378;2023-12-20T12:10:14;7.03;;;4.10;;
48487;SDS011;34289;48.572;13.378;2023-12-20T12:12:40;7.28;;;3.92;;
48487;SDS011;34289;48.572;13.378;2023-12-20T12:15:06;4.28;;;3.22;;
48487;SDS011;34289;48.572;13.378;2023-12-20T12:17:32;5.07;;;3.10;;
48487;SDS011;34289;48.572;13.378;2023-12-20T12:20:04;5.55;;;3.70;;
48487;SDS011;34289;48.572;13.378;2023-12-20T12:22:31;4.07;;;3.67;;
48487;SDS011;34289;48.572;13.378;2023-12-20T12:24:59;10.32;;;3.72;;
48487;SDS011;34289;48.572;13.378;2023-12-20T12:27:35;7.70;;;4.07;;
48487;SDS011;34289;48.572;13.378;2023-12-20T12:30:01;14.25;;;7.68;;
48487;SDS011;34289;48.572;13.378;2023-12-20T12:32:35;64.00;;;18.77;;
48487;SDS011;34289;48.572;13.378;2023-12-20T12:35:08;35.63;;;13.40;;
48487;SDS011;34289;48.572;13.378;2023-12-20T12:37:34;10.32;;;7.30;;
48487;SDS011;34289;48.572;13.378;2023-12-20T12:40:04;3.95;;;3.53;;
48487;SDS011;34289;48.572;13.378;2023-12-20T12:42:30;6.30;;;5.70;;
48487;SDS011;34289;48.572;13.378;2023-12-20T12:44:56;8.65;;;3.85;;
48487;SDS011;34289;48.572;13.378;2023-12-20T12:47:21;2.90;;;2.70;;
48487;SDS011;34289;48.572;13.378;2023-12-20T12:49:47;2.63;;;2.42;;
48487;SDS011;34289;48.572;13.378;2023-12-20T12:52:16;2.80;;;2.60;;
48487;SDS011;34289;48.572;13.378;2023-12-20T12:54:41;3.55;;;2.60;;
48487;SDS011;34289;48.572;13.378;2023-12-20T12:57:07;3.75;;;2.67;;
48487;SDS011;34289;48.572;13.378;2023-12-20T12:59:33;4.65;;;2.70;;
48487;SDS011;34289;48.572;13.378;2023-12-20T13:01:59;4.10;;;2.92;;
48487;SDS011;34289;48.572;13.378;2023-12-20T13:04:25;3.00;;;2.75;;
48487;SDS011;34289;48.572;13.378;2023-12-20T13:06:50;4.18;;;2.97;;
48487;SDS011;34289;48.572;13.378;2023-12-20T13:09:16;5.18;;;3.30;;
48487;SDS011;34289;48.572;13.378;2023-12-20T13:11:43;3.47;;;3.17;;
48487;SDS011;34289;48.572;13.378;2023-12-20T13:14:09;3.10;;;2.80;;
48487;SDS011;34289;48.572;13.378;2023-12-20T13:16:40;3.67;;;3.05;;
48487;SDS011;34289;48.572;13.378;2023-12-20T13:19:06;3.40;;;2.70;;
48487;SDS011;34289;48.572;13.378;2023-12-20T13:21:31;4.10;;;2.70;;
48487;SDS011;34289;48.572;13.378;2023-12-20T13:23:57;3.25;;;2.70;;
48487;SDS011;34289;48.572;13.378;2023-12-20T13:26:22;3.30;;;2.85;;
48487;SDS011;34289;48.572;13.378;2023-12-20T13:28:48;4.10;;;2.72;;
48487;SDS011;34289;48.572;13.378;2023-12-20T13:31:14;3.72;;;2.50;;
48487;SDS011;34289;48.572;13.378;2023-12-20T13:33:39;2.83;;;2.58;;
48487;SDS011;34289;48.572;13.378;2023-12-20T13:36:05;2.88;;;2.67;;
48487;SDS011;34289;48.572;13.378;2023-12-20T13:38:31;2.58;;;2.38;;
48487;SDS011;34289;48.572;13.378;2023-12-20T13:40:57;4.45;;;2.75;;
48487;SDS011;34289;48.572;13.378;2023-12-20T13:43:24;2.75;;;2.55;;
48487;SDS011;34289;48.572;13.378;2023-12-20T13:45:49;2.92;;;2.50;;
48487;SDS011;34289;48.572;13.378;2023-12-20T13:48:15;5.70;;;2.70;;
48487;SDS011;34289;48.572;13.378;2023-12-20T13:50:41;2.50;;;2.30;;
48487;SDS011;34289;48.572;13.378;2023-12-20T13:53:07;4.32;;;2.78;;
48487;SDS011;34289;48.572;13.378;2023-12-20T13:55:33;2.42;;;2.22;;
48487;SDS011;34289;48.572;13.378;2023-12-20T13:57:58;2.97;;;2.55;;
48487;SDS011;34289;48.572;13.378;2023-12-20T14:00:24;3.63;;;2.50;;
48487;SDS011;34289;48.572;13.378;2023-12-20T14:02:50;2.60;;;2.40;;
48487;SDS011;34289;48.572;13.378;2023-12-20T14:05:15;2.88;;;2.33;;
48487;SDS011;34289;48.572;13.378;2023-12-20T14:07:45;3.00;;;2.40;;
48487;SDS011;34289;48.572;13.378;2023-12-20T14:10:11;7.15;;;3.00;;
48487;SDS011;34289;48.572;13.378;2023-12-20T14:12:38;6.82;;;3.15;;
48487;SDS011;34289;48.572;13.378;2023-12-20T14:15:04;6.03;;;2.58;;
48487;SDS011;34289;48.572;13.378;2023-12-20T14:17:36;5.80;;;3.00;;
48487;SDS011;34289;48.572;13.378;2023-12-20T14:20:03;2.97;;;2.60;;
48487;SDS011;34289;48.572;13.378;2023-12-20T14:22:31;3.78;;;2.80;;
48487;SDS011;34289;48.572;13.378;2023-12-20T14:24:56;2.50;;;2.30;;
48487;SDS011;34289;48.572;13.378;2023-12-20T14:27:22;4.10;;;2.60;;
48487;SDS011;34289;48.572;13.378;2023-12-20T14:29:49;3.70;;;3.05;;
48487;SDS011;34289;48.572;13.378;2023-12-20T14:32:15;4.65;;;2.85;;
48487;SDS011;34289;48.572;13.378;2023-12-20T14:34:41;4.63;;;2.67;;
48487;SDS011;34289;48.572;13.378;2023-12-20T14:37:07;3.92;;;2.92;;
48487;SDS011;34289;48.572;13.378;2023-12-20T14:39:32;3.70;;;3.03;;
48487;SDS011;34289;48.572;13.378;2023-12-20T14:41:58;4.85;;;3.60;;
48487;SDS011;34289;48.572;13.378;2023-12-20T14:44:23;6.05;;;3.83;;
48487;SDS011;34289;48.572;13.378;2023-12-20T14:46:50;5.75;;;3.33;;
48487;SDS011;34289;48.572;13.378;2023-12-20T14:49:15;4.45;;;3.75;;
48487;SDS011;34289;48.572;13.378;2023-12-20T14:51:44;5.03;;;3.40;;
48487;SDS011;34289;48.572;13.378;2023-12-20T14:54:13;5.00;;;3.33;;
48487;SDS011;34289;48.572;13.378;2023-12-20T14:56:38;4.85;;;3.35;;
48487;SDS011;34289;48.572;13.378;2023-12-20T14:59:04;5.30;;;3.88;;
48487;SDS011;34289;48.572;13.378;2023-12-20T15:01:30;3.40;;;3.10;;
48487;SDS011;34289;48.572;13.378;2023-12-20T15:03:56;5.95;;;3.67;;
48487;SDS011;34289;48.572;13.378;2023-12-20T15:06:22;6.68;;;3.10;;
48487;SDS011;34289;48.572;13.378;2023-12-20T15:08:47;4.97;;;3.13;;
48487;SDS011;34289;48.572;13.378;2023-12-20T15:11:13;6.82;;;3.70;;
48487;SDS011;34289;48.572;13.378;2023-12-20T15:13:39;3.60;;;3.30;;
48487;SDS011;34289;48.572;13.378;2023-12-20T15:16:04;2.80;;;2.60;;
48487;SDS011;34289;48.572;13.378;2023-12-20T15:18:31;10.60;;;4.15;;
48487;SDS011;34289;48.572;13.378;2023-12-20T15:20:57;6.13;;;3.30;;
48487;SDS011;34289;48.572;13.378;2023-12-20T15:23:22;3.35;;;3.05;;
48487;SDS011;34289;48.572;13.378;2023-12-20T15:25:51;4.80;;;3.28;;
48487;SDS011;34289;48.572;13.378;2023-12-20T15:28:17;5.25;;;3.15;;
48487;SDS011;34289;48.572;13.378;2023-12-20T15:30:42;5.78;;;3.45;;
48487;SDS011;34289;48.572;13.378;2023-12-20T15:33:08;4.38;;;3.28;;
48487;SDS011;34289;48.572;13.378;2023-12-20T15:35:34;3.90;;;3.60;;
48487;SDS011;34289;48.572;13.378;2023-12-20T15:37:59;3.88;;;3.55;;
48487;SDS011;34289;48.572;13.378;2023-12-20T15:40:25;5.45;;;3.42;;
48487;SDS011;34289;48.572;13.378;2023-12-20T15:42:51;5.68;;;3.72;;
48487;SDS011;34289;48.572;13.378;2023-12-20T15:45:17;3.53;;;3.33;;
48487;SDS011;34289;48.572;13.378;2023-12-20T15:47:43;5.38;;;3.35;;